createdAt,value
2022-10-28T00:00:58.750Z,19.44
2022-10-28T00:01:58.823Z,19.45
2022-10-28T00:02:58.771Z,19.44
2022-10-28T00:03:58.725Z,19.45
2022-10-28T00:04:58.733Z,19.47
2022-10-28T00:05:58.691Z,19.47
2022-10-28T00:06:58.690Z,19.48
2022-10-28T00:07:58.693Z,19.47
2022-10-28T00:08:58.679Z,19.48
2022-10-28T00:09:58.661Z,19.48
2022-10-28T00:10:58.636Z,19.49
2022-10-28T00:11:58.640Z,19.49
2022-10-28T00:12:59.556Z,19.49
2022-10-28T00:13:58.626Z,19.49
2022-10-28T00:14:58.584Z,19.51
2022-10-28T00:15:58.578Z,19.51
2022-10-28T00:16:58.568Z,19.54
2022-10-28T00:17:59.509Z,19.52
2022-10-28T00:18:58.574Z,19.52
2022-10-28T00:19:59.533Z,19.49
2022-10-28T00:20:58.528Z,19.51
2022-10-28T00:21:58.520Z,19.51
2022-10-28T00:22:58.510Z,19.51
2022-10-28T00:23:58.495Z,19.49
2022-10-28T00:24:58.470Z,19.51
2022-10-28T00:25:58.493Z,19.49
2022-10-28T00:26:58.460Z,19.48
2022-10-28T00:27:59.403Z,19.49
2022-10-28T00:28:58.433Z,19.49
2022-10-28T00:29:58.473Z,19.48
2022-10-28T00:30:58.406Z,19.47
2022-10-28T00:31:58.491Z,19.48
2022-10-28T00:32:58.388Z,19.47
2022-10-28T00:33:58.378Z,19.48
2022-10-28T00:34:58.362Z,19.49
2022-10-28T00:35:58.374Z,19.49
2022-10-28T00:36:59.022Z,19.51
2022-10-28T00:37:58.355Z,19.51
2022-10-28T00:38:58.319Z,19.49
2022-10-28T00:39:58.317Z,19.51
2022-10-28T00:40:58.298Z,19.51
2022-10-28T00:41:58.315Z,19.49
2022-10-28T00:42:58.290Z,19.52
2022-10-28T00:43:58.267Z,19.51
2022-10-28T00:44:58.244Z,19.52
2022-10-28T00:45:58.258Z,19.52
2022-10-28T00:46:58.285Z,19.54
2022-10-28T00:47:59.188Z,19.54
2022-10-28T00:48:58.204Z,19.52
2022-10-28T00:49:58.203Z,19.52
2022-10-28T00:50:58.180Z,19.54
2022-10-28T00:51:58.174Z,19.52
2022-10-28T00:52:58.183Z,19.51
2022-10-28T00:53:58.158Z,19.51
2022-10-28T00:54:58.144Z,19.49
2022-10-28T00:55:58.134Z,19.49
2022-10-28T00:56:58.165Z,19.49
2022-10-28T00:57:58.145Z,19.48
2022-10-28T00:58:58.114Z,19.49
2022-10-28T00:59:58.082Z,19.51
2022-10-28T01:00:59.021Z,19.51
2022-10-28T01:01:58.174Z,19.51
2022-10-28T01:02:58.072Z,19.51
2022-10-28T01:03:58.063Z,19.54
2022-10-28T01:04:58.031Z,19.55
2022-10-28T01:05:58.031Z,19.55
2022-10-28T01:06:58.008Z,19.56
2022-10-28T01:07:58.056Z,19.55
2022-10-28T01:09:00.051Z,19.54
2022-10-28T01:09:57.977Z,19.54
2022-10-28T01:10:57.977Z,19.52
2022-10-28T01:11:57.974Z,19.52
2022-10-28T01:12:57.973Z,19.52
2022-10-28T01:13:57.937Z,19.51
2022-10-28T01:14:57.917Z,19.51
2022-10-28T01:15:57.900Z,19.52
2022-10-28T01:16:57.889Z,19.52
2022-10-28T01:17:57.875Z,19.52
2022-10-28T01:18:57.908Z,19.54
2022-10-28T01:19:57.862Z,19.52
2022-10-28T01:20:57.852Z,19.52
2022-10-28T01:21:57.837Z,19.51
2022-10-28T01:22:57.829Z,19.52
2022-10-28T01:23:57.808Z,19.51
2022-10-28T01:24:57.839Z,19.48
2022-10-28T01:25:57.811Z,19.49
2022-10-28T01:26:57.899Z,19.48
2022-10-28T01:27:57.760Z,19.48
2022-10-28T01:28:57.762Z,19.49
2022-10-28T01:29:57.743Z,19.49
2022-10-28T01:30:57.770Z,19.49
2022-10-28T01:31:57.733Z,19.48
2022-10-28T01:32:57.712Z,19.47
2022-10-28T01:33:57.714Z,19.47
2022-10-28T01:34:57.685Z,19.47
2022-10-28T01:35:57.673Z,19.47
2022-10-28T01:36:57.694Z,19.48
2022-10-28T01:37:57.668Z,19.48
2022-10-28T01:38:57.644Z,19.47
2022-10-28T01:39:57.635Z,19.48
2022-10-28T01:40:57.635Z,19.48
2022-10-28T01:41:57.629Z,19.47
2022-10-28T01:42:57.626Z,19.48
2022-10-28T01:43:57.584Z,19.48
2022-10-28T01:44:57.562Z,19.49
2022-10-28T01:45:57.576Z,19.48
2022-10-28T01:46:57.556Z,19.48
2022-10-28T01:47:57.548Z,19.48
2022-10-28T01:48:57.527Z,19.48
2022-10-28T01:49:57.514Z,19.47
2022-10-28T01:50:57.558Z,19.47
2022-10-28T01:51:57.485Z,19.47
2022-10-28T01:52:57.480Z,19.47
2022-10-28T01:53:57.484Z,19.45
2022-10-28T01:54:57.460Z,19.45
2022-10-28T01:55:57.441Z,19.45
2022-10-28T01:56:57.466Z,19.44
2022-10-28T01:57:57.421Z,19.44
2022-10-28T01:58:57.441Z,19.44
2022-10-28T01:59:57.391Z,19.41
2022-10-28T02:00:57.503Z,19.41
2022-10-28T02:01:57.539Z,19.39
2022-10-28T02:02:57.408Z,19.39
2022-10-28T02:03:57.382Z,19.39
2022-10-28T02:04:57.345Z,19.37
2022-10-28T02:05:57.364Z,19.39
2022-10-28T02:06:57.343Z,19.34
2022-10-28T02:07:57.314Z,19.33
2022-10-28T02:08:57.316Z,19.30
2022-10-28T02:09:57.338Z,19.30
2022-10-28T02:10:57.277Z,19.29
2022-10-28T02:11:57.279Z,19.26
2022-10-28T02:12:57.278Z,19.26
2022-10-28T02:13:57.317Z,19.24
2022-10-28T02:14:57.250Z,19.26
2022-10-28T02:15:57.218Z,19.24
2022-10-28T02:16:57.227Z,19.22
2022-10-28T02:17:57.549Z,19.24
2022-10-28T02:18:57.211Z,19.22
2022-10-28T02:19:57.213Z,19.21
2022-10-28T02:20:57.198Z,19.24
2022-10-28T02:21:57.179Z,19.21
2022-10-28T02:22:57.141Z,19.21
2022-10-28T02:23:57.135Z,19.21
2022-10-28T02:24:57.140Z,19.19
2022-10-28T02:25:57.110Z,19.19
2022-10-28T02:26:57.105Z,19.19
2022-10-28T02:27:57.147Z,19.18
2022-10-28T02:28:57.131Z,19.16
2022-10-28T02:29:57.119Z,19.16
2022-10-28T02:30:57.102Z,19.15
2022-10-28T02:31:57.044Z,19.16
2022-10-28T02:32:57.101Z,19.15
2022-10-28T02:33:57.088Z,19.15
2022-10-28T02:34:57.015Z,19.14
2022-10-28T02:35:57.020Z,19.16
2022-10-28T02:36:56.988Z,19.15
2022-10-28T02:37:56.985Z,19.16
2022-10-28T02:38:56.985Z,19.14
2022-10-28T02:39:57.957Z,19.14
2022-10-28T02:40:56.945Z,19.12
2022-10-28T02:41:56.936Z,19.12
2022-10-28T02:42:57.171Z,19.11
2022-10-28T02:43:56.903Z,19.09
2022-10-28T02:44:56.926Z,19.08
2022-10-28T02:45:56.888Z,19.07
2022-10-28T02:46:56.895Z,19.07
2022-10-28T02:47:56.868Z,19.02
2022-10-28T02:48:56.883Z,19.00
2022-10-28T02:49:56.872Z,19.00
2022-10-28T02:50:56.831Z,18.98
2022-10-28T02:51:56.812Z,18.98
2022-10-28T02:52:56.846Z,18.98
2022-10-28T02:53:56.811Z,18.96
2022-10-28T02:54:56.825Z,18.96
2022-10-28T02:55:56.772Z,18.93
2022-10-28T02:56:56.773Z,18.95
2022-10-28T02:57:56.761Z,18.96
2022-10-28T02:58:56.755Z,18.93
2022-10-28T02:59:56.768Z,18.93
2022-10-28T03:00:56.779Z,18.93
2022-10-28T03:01:56.785Z,18.92
2022-10-28T03:02:56.694Z,18.92
2022-10-28T03:03:56.674Z,18.90
2022-10-28T03:04:56.673Z,18.90
2022-10-28T03:05:56.681Z,18.89
2022-10-28T03:06:56.683Z,18.89
2022-10-28T03:07:56.812Z,18.86
2022-10-28T03:08:56.645Z,18.86
2022-10-28T03:09:56.644Z,18.84
2022-10-28T03:10:56.617Z,18.86
2022-10-28T03:11:56.606Z,18.83
2022-10-28T03:12:56.585Z,18.83
2022-10-28T03:13:56.582Z,18.84
2022-10-28T03:14:56.574Z,18.83
2022-10-28T03:15:56.568Z,18.83
2022-10-28T03:16:56.540Z,18.81
2022-10-28T03:17:56.581Z,18.80
2022-10-28T03:18:56.534Z,18.78
2022-10-28T03:19:56.488Z,18.78
2022-10-28T03:20:58.898Z,18.74
2022-10-28T03:21:56.470Z,18.75
2022-10-28T03:22:56.808Z,18.73
2022-10-28T03:23:56.484Z,18.73
2022-10-28T03:24:56.452Z,18.71
2022-10-28T03:25:56.665Z,18.68
2022-10-28T03:26:56.423Z,18.68
2022-10-28T03:27:56.421Z,18.68
2022-10-28T03:28:56.411Z,18.68
2022-10-28T03:29:56.391Z,18.70
2022-10-28T03:30:56.459Z,18.68
2022-10-28T03:31:56.391Z,18.66
2022-10-28T03:32:56.774Z,18.65
2022-10-28T03:33:56.349Z,18.66
2022-10-28T03:34:56.333Z,18.63
2022-10-28T03:35:56.318Z,18.65
2022-10-28T03:36:56.318Z,18.62
2022-10-28T03:37:56.324Z,18.62
2022-10-28T03:38:56.295Z,18.62
2022-10-28T03:39:56.288Z,18.60
2022-10-28T03:40:56.265Z,18.60
2022-10-28T03:41:56.256Z,18.59
2022-10-28T03:42:56.611Z,18.62
2022-10-28T03:43:56.267Z,18.62
2022-10-28T03:44:56.307Z,18.60
2022-10-28T03:45:56.224Z,18.62
2022-10-28T03:46:56.197Z,18.62
2022-10-28T03:47:57.191Z,18.62
2022-10-28T03:48:56.184Z,18.62
2022-10-28T03:49:56.214Z,18.60
2022-10-28T03:50:56.149Z,18.59
2022-10-28T03:51:56.143Z,18.60
2022-10-28T03:52:56.131Z,18.60
2022-10-28T03:53:56.126Z,18.59
2022-10-28T03:54:56.143Z,18.58
2022-10-28T03:55:56.100Z,18.58
2022-10-28T03:56:56.094Z,18.58
2022-10-28T03:57:56.319Z,18.56
2022-10-28T03:58:56.083Z,18.56
2022-10-28T03:59:56.091Z,18.58
2022-10-28T04:00:56.095Z,18.58
2022-10-28T04:01:57.085Z,18.58
2022-10-28T04:02:56.455Z,18.58
2022-10-28T04:03:56.009Z,18.58
2022-10-28T04:04:56.023Z,18.58
2022-10-28T04:05:55.988Z,18.58
2022-10-28T04:06:56.033Z,18.56
2022-10-28T04:07:55.966Z,18.58
2022-10-28T04:08:56.006Z,18.58
2022-10-28T04:09:56.232Z,18.58
2022-10-28T04:10:55.992Z,18.58
2022-10-28T04:11:55.956Z,18.58
2022-10-28T04:12:56.183Z,18.60
2022-10-28T04:13:56.020Z,18.60
2022-10-28T04:14:55.888Z,18.62
2022-10-28T04:15:55.897Z,18.62
2022-10-28T04:16:55.894Z,18.62
2022-10-28T04:17:56.495Z,18.62
2022-10-28T04:18:55.837Z,18.62
2022-10-28T04:19:55.829Z,18.62
2022-10-28T04:20:55.821Z,18.62
2022-10-28T04:21:55.850Z,18.60
2022-10-28T04:22:57.213Z,18.62
2022-10-28T04:23:56.803Z,18.62
2022-10-28T04:24:55.769Z,18.62
2022-10-28T04:25:55.760Z,18.60
2022-10-28T04:26:55.752Z,18.60
2022-10-28T04:27:56.375Z,18.58
2022-10-28T04:28:55.925Z,18.56
2022-10-28T04:29:55.789Z,18.58
2022-10-28T04:30:55.725Z,18.59
2022-10-28T04:31:56.643Z,18.59
2022-10-28T04:32:55.694Z,18.59
2022-10-28T04:33:55.676Z,18.58
2022-10-28T04:34:55.707Z,18.58
2022-10-28T04:35:55.665Z,18.58
2022-10-28T04:36:55.636Z,18.59
2022-10-28T04:37:56.044Z,18.59
2022-10-28T04:38:55.627Z,18.59
2022-10-28T04:39:55.705Z,18.60
2022-10-28T04:40:55.607Z,18.59
2022-10-28T04:41:55.618Z,18.60
2022-10-28T04:42:55.942Z,18.60
2022-10-28T04:43:55.585Z,18.62
2022-10-28T04:44:55.547Z,18.60
2022-10-28T04:45:55.569Z,18.60
2022-10-28T04:46:55.587Z,18.59
2022-10-28T04:47:55.522Z,18.60
2022-10-28T04:48:55.507Z,18.60
2022-10-28T04:49:55.525Z,18.60
2022-10-28T04:50:55.515Z,18.60
2022-10-28T04:51:55.480Z,18.60
2022-10-28T04:52:55.717Z,18.60
2022-10-28T04:53:55.450Z,18.60
2022-10-28T04:54:55.453Z,18.62
2022-10-28T04:55:55.457Z,18.60
2022-10-28T04:56:55.421Z,18.62
2022-10-28T04:57:56.860Z,18.62
2022-10-28T04:58:55.395Z,18.60
2022-10-28T04:59:55.375Z,18.62
2022-10-28T05:00:55.471Z,18.62
2022-10-28T05:01:55.427Z,18.59
2022-10-28T05:02:55.560Z,18.60
2022-10-28T05:03:55.332Z,18.59
2022-10-28T05:04:55.343Z,18.59
2022-10-28T05:05:55.313Z,18.59
2022-10-28T05:06:55.446Z,18.58
2022-10-28T05:07:55.595Z,18.58
2022-10-28T05:08:55.318Z,18.58
2022-10-28T05:09:55.354Z,18.59
2022-10-28T05:10:55.257Z,18.58
2022-10-28T05:11:55.695Z,18.59
2022-10-28T05:12:55.452Z,18.59
2022-10-28T05:13:55.451Z,18.60
2022-10-28T05:14:55.360Z,18.62
2022-10-28T05:15:55.401Z,18.60
2022-10-28T05:16:55.934Z,18.62
2022-10-28T05:17:56.069Z,18.62
2022-10-28T05:18:55.320Z,18.62
2022-10-28T05:19:55.340Z,18.62
2022-10-28T05:20:55.299Z,18.63
2022-10-28T05:21:55.567Z,18.65
2022-10-28T05:22:55.445Z,18.65
2022-10-28T05:23:55.897Z,18.68
2022-10-28T05:24:55.160Z,18.68
2022-10-28T05:25:55.342Z,18.68
2022-10-28T05:26:55.070Z,18.70
2022-10-28T05:27:55.895Z,18.70
2022-10-28T05:28:55.072Z,18.70
2022-10-28T05:29:55.898Z,18.70
2022-10-28T05:30:55.077Z,18.68
2022-10-28T05:31:55.074Z,18.71
2022-10-28T05:32:55.427Z,18.70
2022-10-28T05:33:55.042Z,18.70
2022-10-28T05:34:55.021Z,18.73
2022-10-28T05:35:54.988Z,18.71
2022-10-28T05:36:54.976Z,18.71
2022-10-28T05:37:54.983Z,18.71
2022-10-28T05:38:55.005Z,18.74
2022-10-28T05:39:55.156Z,18.73
2022-10-28T05:40:55.134Z,18.74
2022-10-28T05:41:54.916Z,18.74
2022-10-28T05:42:55.243Z,18.75
2022-10-28T05:43:54.945Z,18.75
2022-10-28T05:44:54.906Z,18.75
2022-10-28T05:45:54.926Z,18.78
2022-10-28T05:46:54.857Z,18.77
2022-10-28T05:47:55.275Z,18.77
2022-10-28T05:48:54.840Z,18.77
2022-10-28T05:49:54.897Z,18.78
2022-10-28T05:50:54.921Z,18.77
2022-10-28T05:51:54.938Z,18.78
2022-10-28T05:52:54.807Z,18.77
2022-10-28T05:53:54.897Z,18.77
2022-10-28T05:54:55.000Z,18.77
2022-10-28T05:55:54.871Z,18.77
2022-10-28T05:56:54.841Z,18.77
2022-10-28T05:57:55.102Z,18.77
2022-10-28T05:58:54.816Z,18.77
2022-10-28T05:59:54.770Z,18.77
2022-10-28T06:00:54.718Z,18.77
2022-10-28T06:01:55.613Z,18.77
2022-10-28T06:02:55.688Z,18.78
2022-10-28T06:03:54.755Z,18.77
2022-10-28T06:04:54.663Z,18.77
2022-10-28T06:05:54.646Z,18.77
2022-10-28T06:06:54.642Z,18.77
2022-10-28T06:07:54.667Z,18.77
2022-10-28T06:08:54.618Z,18.77
2022-10-28T06:09:54.601Z,18.78
2022-10-28T06:10:53.051Z,18.78
2022-10-28T06:11:53.065Z,18.78
2022-10-28T06:12:53.327Z,18.78
2022-10-28T06:13:53.063Z,18.77
2022-10-28T06:14:53.014Z,18.77
2022-10-28T06:15:53.005Z,18.75
2022-10-28T06:16:53.003Z,18.75
2022-10-28T06:17:53.010Z,18.74
2022-10-28T06:18:52.986Z,18.74
2022-10-28T06:19:53.684Z,18.73
2022-10-28T06:20:52.980Z,18.73
2022-10-28T06:21:53.082Z,18.71
2022-10-28T06:22:53.221Z,18.73
2022-10-28T06:23:52.953Z,18.68
2022-10-28T06:24:52.909Z,18.68
2022-10-28T06:25:53.015Z,18.66
2022-10-28T06:26:52.898Z,18.65
2022-10-28T06:27:53.165Z,18.65
2022-10-28T06:28:52.896Z,18.65
2022-10-28T06:29:52.903Z,18.63
2022-10-28T06:30:53.107Z,18.63
2022-10-28T06:31:52.867Z,18.63
2022-10-28T06:32:52.815Z,18.62
2022-10-28T06:33:52.826Z,18.62
2022-10-28T06:34:52.839Z,18.59
2022-10-28T06:35:52.809Z,18.60
2022-10-28T06:36:52.806Z,18.59
2022-10-28T06:37:53.002Z,18.60
2022-10-28T06:38:52.764Z,18.60
2022-10-28T06:39:52.837Z,18.60
2022-10-28T06:40:52.810Z,18.62
2022-10-28T06:41:52.751Z,18.63
2022-10-28T06:42:53.103Z,18.62
2022-10-28T06:43:52.716Z,18.62
2022-10-28T06:44:52.711Z,18.62
2022-10-28T06:45:52.876Z,18.62
2022-10-28T06:46:54.207Z,18.62
2022-10-28T06:47:54.187Z,18.62
2022-10-28T06:48:54.179Z,18.62
2022-10-28T06:49:54.329Z,18.62
2022-10-28T06:50:54.149Z,18.59
2022-10-28T06:51:54.170Z,18.60
2022-10-28T06:52:54.135Z,18.62
2022-10-28T06:53:54.133Z,18.60
2022-10-28T06:54:54.137Z,18.60
2022-10-28T06:55:54.200Z,18.62
2022-10-28T06:56:54.255Z,18.62
2022-10-28T06:57:54.885Z,18.63
2022-10-28T06:58:54.069Z,18.63
2022-10-28T06:59:54.207Z,18.62
2022-10-28T07:00:54.080Z,18.63
2022-10-28T07:01:54.212Z,18.65
2022-10-28T07:02:54.474Z,18.66
2022-10-28T07:03:54.064Z,18.66
2022-10-28T07:04:54.153Z,18.65
2022-10-28T07:05:54.015Z,18.68
2022-10-28T07:06:54.017Z,18.68
2022-10-28T07:07:54.233Z,18.68
2022-10-28T07:08:53.987Z,18.73
2022-10-28T07:09:53.980Z,18.70
2022-10-28T07:10:53.979Z,18.73
2022-10-28T07:11:55.428Z,18.73
2022-10-28T07:12:54.272Z,18.74
2022-10-28T07:13:55.227Z,18.75
2022-10-28T07:14:53.916Z,18.77
2022-10-28T07:15:53.913Z,18.75
2022-10-28T07:16:53.909Z,18.78
2022-10-28T07:17:54.821Z,18.80
2022-10-28T07:18:53.907Z,18.80
2022-10-28T07:19:53.852Z,18.81
2022-10-28T07:20:53.853Z,18.83
2022-10-28T07:21:53.837Z,18.83
2022-10-28T07:22:54.122Z,18.84
2022-10-28T07:23:53.865Z,18.86
2022-10-28T07:24:53.820Z,18.86
2022-10-28T07:26:55.613Z,18.88
2022-10-28T07:27:54.125Z,18.89
2022-10-28T07:28:53.774Z,18.90
2022-10-28T07:29:53.790Z,18.90
2022-10-28T07:30:53.741Z,18.93
2022-10-28T07:31:53.742Z,18.93
2022-10-28T07:32:54.725Z,18.93
2022-10-28T07:33:53.713Z,18.93
2022-10-28T07:34:54.259Z,18.96
2022-10-28T07:35:54.121Z,18.98
2022-10-28T07:36:53.680Z,18.99
2022-10-28T07:37:53.667Z,19.00
2022-10-28T07:38:53.650Z,19.02
2022-10-28T07:39:53.669Z,19.00
2022-10-28T07:40:53.645Z,19.02
2022-10-28T07:41:53.648Z,19.04
2022-10-28T07:42:53.859Z,19.04
2022-10-28T07:43:53.642Z,19.07
2022-10-28T07:44:53.594Z,19.07
2022-10-28T07:45:53.570Z,19.07
2022-10-28T07:46:55.769Z,19.07
2022-10-28T07:47:53.552Z,19.09
2022-10-28T07:48:53.530Z,19.09
2022-10-28T07:49:53.751Z,19.11
2022-10-28T07:50:53.563Z,19.12
2022-10-28T07:51:53.511Z,19.12
2022-10-28T07:52:53.703Z,19.14
2022-10-28T07:53:53.500Z,19.15
2022-10-28T07:54:53.469Z,19.16
2022-10-28T07:55:53.459Z,19.16
2022-10-28T07:56:53.441Z,19.18
2022-10-28T07:57:53.808Z,19.19
2022-10-28T07:58:53.430Z,19.18
2022-10-28T07:59:53.419Z,19.22
2022-10-28T08:00:53.441Z,19.22
2022-10-28T08:01:53.479Z,19.26
2022-10-28T08:02:53.374Z,19.26
2022-10-28T08:03:53.363Z,19.29
2022-10-28T08:04:53.364Z,19.29
2022-10-28T08:05:57.436Z,19.30
2022-10-28T08:07:53.611Z,19.31
2022-10-28T08:08:53.344Z,19.34
2022-10-28T08:09:53.281Z,19.34
2022-10-28T08:10:53.770Z,19.37
2022-10-28T08:11:53.266Z,19.39
2022-10-28T08:12:53.350Z,19.39
2022-10-28T08:13:53.778Z,19.40
2022-10-28T08:14:53.272Z,19.41
2022-10-28T08:15:53.437Z,19.41
2022-10-28T08:16:53.372Z,19.40
2022-10-28T08:17:53.990Z,19.41
2022-10-28T08:18:53.590Z,19.41
2022-10-28T08:19:54.186Z,19.44
2022-10-28T08:20:58.359Z,19.45
2022-10-28T08:21:53.132Z,19.45
2022-10-28T08:22:53.439Z,19.47
2022-10-28T08:23:53.129Z,19.48
2022-10-28T08:24:53.125Z,19.48
2022-10-28T08:25:53.152Z,19.51
2022-10-28T08:26:53.496Z,19.52
2022-10-28T08:27:53.094Z,19.56
2022-10-28T08:28:53.470Z,19.58
2022-10-28T08:29:53.030Z,19.59
2022-10-28T08:31:04.115Z,19.59
2022-10-28T08:31:54.195Z,19.63
2022-10-28T08:32:54.967Z,19.63
2022-10-28T08:33:53.285Z,19.64
2022-10-28T08:34:53.289Z,19.66
2022-10-28T08:35:52.972Z,19.66
2022-10-28T08:36:52.973Z,19.69
2022-10-28T08:37:53.282Z,19.69
2022-10-28T08:38:52.938Z,19.73
2022-10-28T08:39:52.920Z,19.74
2022-10-28T08:40:52.962Z,19.77
2022-10-28T08:41:52.893Z,19.79
2022-10-28T08:42:54.723Z,19.81
2022-10-28T08:43:57.616Z,19.84
2022-10-28T08:44:55.337Z,19.86
2022-10-28T08:45:52.858Z,19.88
2022-10-28T08:46:52.875Z,19.91
2022-10-28T08:47:53.262Z,19.94
2022-10-28T08:48:52.822Z,19.96
2022-10-28T08:49:52.949Z,20.00
2022-10-28T08:50:53.065Z,20.03
2022-10-28T08:51:52.800Z,20.06
2022-10-28T08:52:53.213Z,20.07
2022-10-28T08:53:52.992Z,20.10
2022-10-28T08:54:52.847Z,20.11
2022-10-28T08:55:53.088Z,20.16
2022-10-28T08:56:52.861Z,20.18
2022-10-28T08:57:53.040Z,20.22
2022-10-28T08:58:52.767Z,20.24
2022-10-28T08:59:52.900Z,20.25
2022-10-28T09:00:52.724Z,20.29
2022-10-28T09:01:52.803Z,20.32
2022-10-28T09:02:52.944Z,20.36
2022-10-28T09:03:52.928Z,20.39
2022-10-28T09:04:53.247Z,20.41
2022-10-28T09:05:52.968Z,20.44
2022-10-28T09:06:52.637Z,20.50
2022-10-28T09:07:52.672Z,20.52
2022-10-28T09:08:52.616Z,20.56
2022-10-28T09:09:52.620Z,20.59
2022-10-28T09:10:52.594Z,20.59
2022-10-28T09:11:52.570Z,20.60
2022-10-28T09:12:52.892Z,20.62
2022-10-28T09:13:52.543Z,20.65
2022-10-28T09:14:52.603Z,20.66
2022-10-28T09:15:52.552Z,20.67
2022-10-28T09:16:53.963Z,20.70
2022-10-28T09:17:52.806Z,20.74
2022-10-28T09:18:52.484Z,20.77
2022-10-28T09:19:52.480Z,20.78
2022-10-28T09:20:52.473Z,20.81
2022-10-28T09:21:52.632Z,20.85
2022-10-28T09:22:52.763Z,20.88
2022-10-28T09:23:52.436Z,20.92
2022-10-28T09:24:52.449Z,20.96
2022-10-28T09:25:52.419Z,21.00
2022-10-28T09:26:52.411Z,21.05
2022-10-28T09:27:52.663Z,21.09
2022-10-28T09:28:52.420Z,21.11
2022-10-28T09:29:52.366Z,21.14
2022-10-28T09:30:52.491Z,21.18
2022-10-28T09:31:52.362Z,21.21
2022-10-28T09:32:52.638Z,21.25
2022-10-28T09:33:52.332Z,21.29
2022-10-28T09:34:52.327Z,21.30
2022-10-28T09:35:52.338Z,21.30
2022-10-28T09:36:52.292Z,21.33
2022-10-28T09:37:52.324Z,21.36
2022-10-28T09:38:52.349Z,21.37
2022-10-28T09:39:52.265Z,21.39
2022-10-28T09:40:52.239Z,21.40
2022-10-28T09:41:52.263Z,21.45
2022-10-28T09:42:52.238Z,21.45
2022-10-28T09:43:52.224Z,21.46
2022-10-28T09:44:52.205Z,21.46
2022-10-28T09:45:52.270Z,21.48
2022-10-28T09:46:52.168Z,21.48
2022-10-28T09:47:52.457Z,21.48
2022-10-28T09:48:52.195Z,21.48
2022-10-28T09:49:52.158Z,21.51
2022-10-28T09:50:52.134Z,21.51
2022-10-28T09:51:52.125Z,21.51
2022-10-28T09:52:52.130Z,21.54
2022-10-28T09:53:52.384Z,21.54
2022-10-28T09:54:52.139Z,21.57
2022-10-28T09:55:52.137Z,21.60
2022-10-28T09:56:52.066Z,21.61
2022-10-28T09:57:52.465Z,21.64
2022-10-28T09:58:52.059Z,21.66
2022-10-28T09:59:52.067Z,21.70
2022-10-28T10:00:52.017Z,21.75
2022-10-28T10:01:52.270Z,21.75
2022-10-28T10:02:52.044Z,21.76
2022-10-28T10:03:52.028Z,21.79
2022-10-28T10:04:51.999Z,21.80
2022-10-28T10:05:52.023Z,21.82
2022-10-28T10:06:51.970Z,21.82
2022-10-28T10:07:52.364Z,21.83
2022-10-28T10:08:51.943Z,21.88
2022-10-28T10:09:51.978Z,21.89
2022-10-28T10:10:51.936Z,21.91
2022-10-28T10:11:52.117Z,21.92
2022-10-28T10:12:52.565Z,21.93
2022-10-28T10:13:52.364Z,21.93
2022-10-28T10:14:51.950Z,21.96
2022-10-28T10:15:52.468Z,21.98
2022-10-28T10:16:51.922Z,21.98
2022-10-28T10:17:51.882Z,21.99
2022-10-28T10:18:51.832Z,22.00
2022-10-28T10:19:51.932Z,22.02
2022-10-28T10:20:52.000Z,22.04
2022-10-28T10:21:51.788Z,22.06
2022-10-28T10:22:51.987Z,22.06
2022-10-28T10:23:51.765Z,22.04
2022-10-28T10:24:51.747Z,22.04
2022-10-28T10:25:51.769Z,22.06
2022-10-28T10:26:51.726Z,22.06
2022-10-28T10:27:52.118Z,22.06
2022-10-28T10:28:52.017Z,22.08
2022-10-28T10:29:51.848Z,22.08
2022-10-28T10:30:52.107Z,22.10
2022-10-28T10:31:51.803Z,22.11
2022-10-28T10:32:52.048Z,22.13
2022-10-28T10:33:51.846Z,22.15
2022-10-28T10:34:51.638Z,22.15
2022-10-28T10:35:51.640Z,22.20
2022-10-28T10:36:51.621Z,22.22
2022-10-28T10:37:51.818Z,22.25
2022-10-28T10:38:51.613Z,22.28
2022-10-28T10:39:51.631Z,22.33
2022-10-28T10:40:51.589Z,22.36
2022-10-28T10:41:51.562Z,22.43
2022-10-28T10:43:09.551Z,22.45
2022-10-28T10:43:52.600Z,22.48
2022-10-28T10:44:51.556Z,22.53
2022-10-28T10:45:51.671Z,22.57
2022-10-28T10:46:51.650Z,22.60
2022-10-28T10:47:51.894Z,22.66
2022-10-28T10:48:51.497Z,22.69
2022-10-28T10:49:51.479Z,22.76
2022-10-28T10:50:51.608Z,22.78
2022-10-28T10:51:51.476Z,22.80
2022-10-28T10:52:52.454Z,22.83
2022-10-28T10:53:51.516Z,22.84
2022-10-28T10:54:51.764Z,22.84
2022-10-28T10:55:51.647Z,22.84
2022-10-28T10:56:51.839Z,22.83
2022-10-28T10:57:51.599Z,22.83
2022-10-28T10:58:51.677Z,22.83
2022-10-28T10:59:51.361Z,22.81
2022-10-28T11:00:51.568Z,22.83
2022-10-28T11:01:51.514Z,22.85
2022-10-28T11:02:54.989Z,22.88
2022-10-28T11:03:51.383Z,22.91
2022-10-28T11:04:51.305Z,22.94
2022-10-28T11:06:05.309Z,23.02
2022-10-28T11:06:52.471Z,23.03
2022-10-28T11:07:52.142Z,23.08
2022-10-28T11:08:51.278Z,23.12
2022-10-28T11:09:51.267Z,23.12
2022-10-28T11:10:51.245Z,23.12
2022-10-28T11:11:51.234Z,23.12
2022-10-28T11:12:51.478Z,23.09
2022-10-28T11:13:51.207Z,23.09
2022-10-28T11:14:51.194Z,23.08
2022-10-28T11:15:51.196Z,23.09
2022-10-28T11:16:51.244Z,23.09
2022-10-28T11:17:51.524Z,23.09
2022-10-28T11:18:51.225Z,23.10
2022-10-28T11:19:51.275Z,23.12
2022-10-28T11:20:51.194Z,23.13
2022-10-28T11:21:51.456Z,23.17
2022-10-28T11:22:52.382Z,23.17
2022-10-28T11:23:52.071Z,23.21
2022-10-28T11:24:51.238Z,23.24
2022-10-28T11:25:51.742Z,23.25
2022-10-28T11:26:51.753Z,23.27
2022-10-28T11:27:55.317Z,23.31
2022-10-28T11:28:52.104Z,23.34
2022-10-28T11:29:51.108Z,23.37
2022-10-28T11:30:51.053Z,23.40
2022-10-28T11:31:51.973Z,23.40
2022-10-28T11:33:08.158Z,23.41
2022-10-28T11:33:51.971Z,23.43
2022-10-28T11:34:51.920Z,23.46
2022-10-28T11:35:50.956Z,23.44
2022-10-28T11:36:50.974Z,23.47
2022-10-28T11:37:50.934Z,23.47
2022-10-28T11:38:50.940Z,23.48
2022-10-28T11:39:50.929Z,23.50
2022-10-28T11:40:50.897Z,23.50
2022-10-28T11:41:51.885Z,23.50
2022-10-28T11:42:50.931Z,23.51
2022-10-28T11:43:54.627Z,23.54
2022-10-28T11:44:50.990Z,23.56
2022-10-28T11:45:51.609Z,23.56
2022-10-28T11:46:51.055Z,23.59
2022-10-28T11:47:51.141Z,23.62
2022-10-28T11:48:51.142Z,23.66
2022-10-28T11:49:50.803Z,23.69
2022-10-28T11:50:50.798Z,23.73
2022-10-28T11:51:50.799Z,23.74
2022-10-28T11:52:50.843Z,23.76
2022-10-28T11:53:50.801Z,23.80
2022-10-28T11:54:50.752Z,23.81
2022-10-28T11:55:50.741Z,23.84
2022-10-28T11:56:50.723Z,23.86
2022-10-28T11:57:50.737Z,23.88
2022-10-28T11:58:50.711Z,23.92
2022-10-28T11:59:50.745Z,23.98
2022-10-28T12:00:50.686Z,24.03
2022-10-28T12:01:50.837Z,24.06
2022-10-28T12:02:53.220Z,24.13
2022-10-28T12:03:50.657Z,24.17
2022-10-28T12:04:50.646Z,24.21
2022-10-28T12:05:50.669Z,24.29
2022-10-28T12:06:50.614Z,24.35
2022-10-28T12:07:50.625Z,24.40
2022-10-28T12:08:50.594Z,24.43
2022-10-28T12:09:50.590Z,24.50
2022-10-28T12:10:50.581Z,24.55
2022-10-28T12:11:50.625Z,24.60
2022-10-28T12:12:51.546Z,24.66
2022-10-28T12:13:50.617Z,24.70
2022-10-28T12:14:50.521Z,24.70
2022-10-28T12:15:50.511Z,24.78
2022-10-28T12:16:51.470Z,24.86
2022-10-28T12:17:50.543Z,24.91
2022-10-28T12:18:50.511Z,24.89
2022-10-28T12:19:50.529Z,24.91
2022-10-28T12:20:50.451Z,24.86
2022-10-28T12:21:50.451Z,24.84
2022-10-28T12:22:51.636Z,24.84
2022-10-28T12:23:50.449Z,24.78
2022-10-28T12:24:50.461Z,24.76
2022-10-28T12:25:50.425Z,24.73
2022-10-28T12:26:50.386Z,24.68
2022-10-28T12:27:50.399Z,24.63
2022-10-28T12:28:50.405Z,24.61
2022-10-28T12:29:50.375Z,24.58
2022-10-28T12:30:50.371Z,24.58
2022-10-28T12:31:50.349Z,24.55
2022-10-28T12:32:50.325Z,24.57
2022-10-28T12:33:50.348Z,24.57
2022-10-28T12:34:50.412Z,24.60
2022-10-28T12:35:50.289Z,24.61
2022-10-28T12:36:50.309Z,24.61
2022-10-28T12:37:50.275Z,24.65
2022-10-28T12:38:51.244Z,24.68
2022-10-28T12:39:50.251Z,24.69
2022-10-28T12:40:50.314Z,24.74
2022-10-28T12:41:50.240Z,24.76
2022-10-28T12:42:50.228Z,24.78
2022-10-28T12:43:50.201Z,24.85
2022-10-28T12:44:53.581Z,24.91
2022-10-28T12:45:50.215Z,24.95
2022-10-28T12:46:50.272Z,24.95
2022-10-28T12:47:50.163Z,24.95
2022-10-28T12:48:50.144Z,24.98
2022-10-28T12:49:50.141Z,24.99
2022-10-28T12:50:50.143Z,24.98
2022-10-28T12:51:50.122Z,24.98
2022-10-28T12:52:50.743Z,24.96
2022-10-28T12:53:50.272Z,24.98
2022-10-28T12:54:53.586Z,24.98